sensor_id;sensor_type;location;lat;lon;timestamp;temperature;humidity
49184;DHT22;35021;49.214;12.270;2022-07-10T00:00:40;21.20;62.30
49184;DHT22;35021;49.214;12.270;2022-07-10T00:03:07;21.20;62.30
49184;DHT22;35021;49.214;12.270;2022-07-10T00:05:34;21.20;62.30
49184;DHT22;35021;49.214;12.270;2022-07-10T00:08:02;21.20;62.20
49184;DHT22;35021;49.214;12.270;2022-07-10T00:10:29;21.30;62.20
49184;DHT22;35021;49.214;12.270;2022-07-10T00:12:56;21.20;62.10
49184;DHT22;35021;49.214;12.270;2022-07-10T00:15:23;21.20;62.10
49184;DHT22;35021;49.214;12.270;2022-07-10T00:17:50;21.30;62.10
49184;DHT22;35021;49.214;12.270;2022-07-10T00:20:17;21.20;62.00
49184;DHT22;35021;49.214;12.270;2022-07-10T00:22:44;21.20;61.90
49184;DHT22;35021;49.214;12.270;2022-07-10T00:25:12;21.30;62.00
49184;DHT22;35021;49.214;12.270;2022-07-10T00:27:40;21.30;61.90
49184;DHT22;35021;49.214;12.270;2022-07-10T00:30:09;21.30;61.90
49184;DHT22;35021;49.214;12.270;2022-07-10T00:32:36;21.30;61.80
49184;DHT22;35021;49.214;12.270;2022-07-10T00:35:05;21.30;61.80
49184;DHT22;35021;49.214;12.270;2022-07-10T00:37:32;21.30;61.70
49184;DHT22;35021;49.214;12.270;2022-07-10T00:39:59;21.30;61.70
49184;DHT22;35021;49.214;12.270;2022-07-10T00:42:26;21.30;61.60
49184;DHT22;35021;49.214;12.270;2022-07-10T00:44:54;21.30;61.50
49184;DHT22;35021;49.214;12.270;2022-07-10T00:47:21;21.30;61.40
49184;DHT22;35021;49.214;12.270;2022-07-10T00:49:47;21.30;61.30
49184;DHT22;35021;49.214;12.270;2022-07-10T00:52:15;21.30;61.20
49184;DHT22;35021;49.214;12.270;2022-07-10T00:54:45;21.30;61.20
49184;DHT22;35021;49.214;12.270;2022-07-10T00:57:14;21.30;61.10
49184;DHT22;35021;49.214;12.270;2022-07-10T00:59:42;21.30;61.00
49184;DHT22;35021;49.214;12.270;2022-07-10T01:02:09;21.30;60.80
49184;DHT22;35021;49.214;12.270;2022-07-10T01:04:37;21.30;60.70
49184;DHT22;35021;49.214;12.270;2022-07-10T01:07:04;21.30;60.60
49184;DHT22;35021;49.214;12.270;2022-07-10T01:09:32;21.30;60.60
49184;DHT22;35021;49.214;12.270;2022-07-10T01:12:00;21.20;60.40
49184;DHT22;35021;49.214;12.270;2022-07-10T01:14:31;21.30;60.50
49184;DHT22;35021;49.214;12.270;2022-07-10T01:16:58;21.30;60.40
49184;DHT22;35021;49.214;12.270;2022-07-10T01:19:26;21.30;60.40
49184;DHT22;35021;49.214;12.270;2022-07-10T01:21:52;21.20;60.30
49184;DHT22;35021;49.214;12.270;2022-07-10T01:24:19;21.20;60.20
49184;DHT22;35021;49.214;12.270;2022-07-10T01:26:46;21.20;60.20
49184;DHT22;35021;49.214;12.270;2022-07-10T01:29:13;21.30;60.20
49184;DHT22;35021;49.214;12.270;2022-07-10T01:31:40;21.20;60.10
49184;DHT22;35021;49.214;12.270;2022-07-10T01:34:08;21.20;60.00
49184;DHT22;35021;49.214;12.270;2022-07-10T01:36:38;21.20;60.00
49184;DHT22;35021;49.214;12.270;2022-07-10T01:39:06;21.20;60.00
49184;DHT22;35021;49.214;12.270;2022-07-10T01:41:34;21.30;60.20
49184;DHT22;35021;49.214;12.270;2022-07-10T01:44:01;21.20;60.00
49184;DHT22;35021;49.214;12.270;2022-07-10T01:46:28;21.20;60.00
49184;DHT22;35021;49.214;12.270;2022-07-10T01:48:56;21.20;59.90
49184;DHT22;35021;49.214;12.270;2022-07-10T01:51:23;21.20;59.80
49184;DHT22;35021;49.214;12.270;2022-07-10T01:53:50;21.20;59.80
49184;DHT22;35021;49.214;12.270;2022-07-10T01:56:17;21.20;59.70
49184;DHT22;35021;49.214;12.270;2022-07-10T01:58:44;21.20;59.60
49184;DHT22;35021;49.214;12.270;2022-07-10T02:01:11;21.20;59.40
49184;DHT22;35021;49.214;12.270;2022-07-10T02:03:38;21.20;59.40
49184;DHT22;35021;49.214;12.270;2022-07-10T02:06:24;21.20;59.30
49184;DHT22;35021;49.214;12.270;2022-07-10T02:08:51;21.20;59.20
49184;DHT22;35021;49.214;12.270;2022-07-10T02:11:18;21.20;59.10
49184;DHT22;35021;49.214;12.270;2022-07-10T02:13:45;21.20;59.10
49184;DHT22;35021;49.214;12.270;2022-07-10T02:16:12;21.20;59.00
49184;DHT22;35021;49.214;12.270;2022-07-10T02:18:39;21.20;59.00
49184;DHT22;35021;49.214;12.270;2022-07-10T02:21:07;21.20;58.90
49184;DHT22;35021;49.214;12.270;2022-07-10T02:23:34;21.20;58.90
49184;DHT22;35021;49.214;12.270;2022-07-10T02:26:02;21.20;58.80
49184;DHT22;35021;49.214;12.270;2022-07-10T02:28:29;21.20;58.70
49184;DHT22;35021;49.214;12.270;2022-07-10T02:30:56;21.20;58.70
49184;DHT22;35021;49.214;12.270;2022-07-10T02:33:23;21.20;58.60
49184;DHT22;35021;49.214;12.270;2022-07-10T02:35:50;21.20;58.60
49184;DHT22;35021;49.214;12.270;2022-07-10T02:38:17;21.20;58.50
49184;DHT22;35021;49.214;12.270;2022-07-10T02:40:44;21.20;58.40
49184;DHT22;35021;49.214;12.270;2022-07-10T02:43:11;21.20;58.40
49184;DHT22;35021;49.214;12.270;2022-07-10T02:45:37;21.10;58.40
49184;DHT22;35021;49.214;12.270;2022-07-10T02:48:12;21.10;59.00
49184;DHT22;35021;49.214;12.270;2022-07-10T02:50:38;21.10;58.40
49184;DHT22;35021;49.214;12.270;2022-07-10T02:53:05;21.10;58.40
49184;DHT22;35021;49.214;12.270;2022-07-10T02:55:32;21.10;58.40
49184;DHT22;35021;49.214;12.270;2022-07-10T02:57:59;21.00;58.30
49184;DHT22;35021;49.214;12.270;2022-07-10T03:00:27;21.00;58.30
49184;DHT22;35021;49.214;12.270;2022-07-10T03:02:54;21.00;58.30
49184;DHT22;35021;49.214;12.270;2022-07-10T03:05:22;21.00;58.30
49184;DHT22;35021;49.214;12.270;2022-07-10T03:07:49;21.00;58.30
49184;DHT22;35021;49.214;12.270;2022-07-10T03:10:16;21.00;58.60
49184;DHT22;35021;49.214;12.270;2022-07-10T03:12:43;21.00;58.40
49184;DHT22;35021;49.214;12.270;2022-07-10T03:15:10;21.00;58.40
49184;DHT22;35021;49.214;12.270;2022-07-10T03:17:37;21.00;58.40
49184;DHT22;35021;49.214;12.270;2022-07-10T03:20:05;21.00;58.50
49184;DHT22;35021;49.214;12.270;2022-07-10T03:22:32;21.00;58.50
49184;DHT22;35021;49.214;12.270;2022-07-10T03:24:59;21.00;58.50
49184;DHT22;35021;49.214;12.270;2022-07-10T03:27:26;21.00;58.60
49184;DHT22;35021;49.214;12.270;2022-07-10T03:29:53;21.00;58.60
49184;DHT22;35021;49.214;12.270;2022-07-10T03:32:20;21.00;58.60
49184;DHT22;35021;49.214;12.270;2022-07-10T03:34:46;21.00;58.70
49184;DHT22;35021;49.214;12.270;2022-07-10T03:37:13;21.00;58.70
49184;DHT22;35021;49.214;12.270;2022-07-10T03:39:40;21.00;58.70
49184;DHT22;35021;49.214;12.270;2022-07-10T03:42:07;21.00;58.70
49184;DHT22;35021;49.214;12.270;2022-07-10T03:44:34;21.00;58.70
49184;DHT22;35021;49.214;12.270;2022-07-10T03:47:01;21.10;58.80
49184;DHT22;35021;49.214;12.270;2022-07-10T03:49:28;21.00;58.70
49184;DHT22;35021;49.214;12.270;2022-07-10T03:52:01;21.00;58.70
49184;DHT22;35021;49.214;12.270;2022-07-10T03:54:29;21.00;58.70
49184;DHT22;35021;49.214;12.270;2022-07-10T03:56:59;21.00;58.70
49184;DHT22;35021;49.214;12.270;2022-07-10T03:59:44;21.00;58.70
49184;DHT22;35021;49.214;12.270;2022-07-10T04:02:11;21.00;58.70
49184;DHT22;35021;49.214;12.270;2022-07-10T04:04:38;21.10;58.80
49184;DHT22;35021;49.214;12.270;2022-07-10T04:07:05;21.10;58.70
49184;DHT22;35021;49.214;12.270;2022-07-10T04:09:32;21.00;58.70
49184;DHT22;35021;49.214;12.270;2022-07-10T04:11:59;21.00;58.70
49184;DHT22;35021;49.214;12.270;2022-07-10T04:14:26;21.00;58.70
49184;DHT22;35021;49.214;12.270;2022-07-10T04:16:53;21.00;58.60
49184;DHT22;35021;49.214;12.270;2022-07-10T04:19:20;21.10;58.70
49184;DHT22;35021;49.214;12.270;2022-07-10T04:21:48;21.10;58.70
49184;DHT22;35021;49.214;12.270;2022-07-10T04:24:15;21.10;58.70
49184;DHT22;35021;49.214;12.270;2022-07-10T04:26:43;21.00;58.60
49184;DHT22;35021;49.214;12.270;2022-07-10T04:29:10;21.00;58.60
49184;DHT22;35021;49.214;12.270;2022-07-10T04:31:37;21.10;58.70
49184;DHT22;35021;49.214;12.270;2022-07-10T04:34:04;21.00;58.60
49184;DHT22;35021;49.214;12.270;2022-07-10T04:36:31;21.10;58.60
49184;DHT22;35021;49.214;12.270;2022-07-10T04:38:58;21.10;58.60
49184;DHT22;35021;49.214;12.270;2022-07-10T04:41:25;21.00;58.50
49184;DHT22;35021;49.214;12.270;2022-07-10T04:43:51;21.10;58.60
49184;DHT22;35021;49.214;12.270;2022-07-10T04:46:18;21.00;58.50
49184;DHT22;35021;49.214;12.270;2022-07-10T04:48:45;21.10;58.60
49184;DHT22;35021;49.214;12.270;2022-07-10T04:51:12;21.10;58.60
49184;DHT22;35021;49.214;12.270;2022-07-10T04:53:39;21.10;58.60
49184;DHT22;35021;49.214;12.270;2022-07-10T04:56:06;21.10;58.60
49184;DHT22;35021;49.214;12.270;2022-07-10T04:58:32;21.10;58.60
49184;DHT22;35021;49.214;12.270;2022-07-10T05:00:59;21.00;58.50
49184;DHT22;35021;49.214;12.270;2022-07-10T05:03:28;21.10;58.30
49184;DHT22;35021;49.214;12.270;2022-07-10T05:05:55;21.00;57.80
49184;DHT22;35021;49.214;12.270;2022-07-10T05:08:22;21.00;57.50
49184;DHT22;35021;49.214;12.270;2022-07-10T05:10:49;21.00;57.30
49184;DHT22;35021;49.214;12.270;2022-07-10T05:13:16;21.00;57.00
49184;DHT22;35021;49.214;12.270;2022-07-10T05:15:45;20.90;56.80
49184;DHT22;35021;49.214;12.270;2022-07-10T05:18:13;20.90;56.70
49184;DHT22;35021;49.214;12.270;2022-07-10T05:20:40;20.90;56.40
49184;DHT22;35021;49.214;12.270;2022-07-10T05:23:10;20.90;56.20
49184;DHT22;35021;49.214;12.270;2022-07-10T05:25:38;20.90;56.10
49184;DHT22;35021;49.214;12.270;2022-07-10T05:28:05;20.80;55.80
49184;DHT22;35021;49.214;12.270;2022-07-10T05:30:32;20.90;55.70
49184;DHT22;35021;49.214;12.270;2022-07-10T05:33:00;20.90;55.60
49184;DHT22;35021;49.214;12.270;2022-07-10T05:35:27;20.80;55.40
49184;DHT22;35021;49.214;12.270;2022-07-10T05:37:54;20.80;55.30
49184;DHT22;35021;49.214;12.270;2022-07-10T05:40:21;20.80;55.20
49184;DHT22;35021;49.214;12.270;2022-07-10T05:42:48;20.80;55.20
49184;DHT22;35021;49.214;12.270;2022-07-10T05:45:15;20.80;55.10
49184;DHT22;35021;49.214;12.270;2022-07-10T05:47:42;20.80;55.00
49184;DHT22;35021;49.214;12.270;2022-07-10T05:50:09;20.80;55.00
49184;DHT22;35021;49.214;12.270;2022-07-10T05:52:36;20.80;55.00
49184;DHT22;35021;49.214;12.270;2022-07-10T05:55:03;20.80;54.90
49184;DHT22;35021;49.214;12.270;2022-07-10T05:57:30;20.80;54.90
49184;DHT22;35021;49.214;12.270;2022-07-10T06:00:01;20.80;54.80
49184;DHT22;35021;49.214;12.270;2022-07-10T06:02:30;20.70;54.80
49184;DHT22;35021;49.214;12.270;2022-07-10T06:04:58;20.70;54.90
49184;DHT22;35021;49.214;12.270;2022-07-10T06:07:25;20.70;54.90
49184;DHT22;35021;49.214;12.270;2022-07-10T06:09:53;20.70;55.00
49184;DHT22;35021;49.214;12.270;2022-07-10T06:12:22;20.70;55.00
49184;DHT22;35021;49.214;12.270;2022-07-10T06:14:49;20.60;55.10
49184;DHT22;35021;49.214;12.270;2022-07-10T06:17:16;20.60;55.10
49184;DHT22;35021;49.214;12.270;2022-07-10T06:19:43;20.60;55.10
49184;DHT22;35021;49.214;12.270;2022-07-10T06:22:10;20.60;55.10
49184;DHT22;35021;49.214;12.270;2022-07-10T06:24:55;20.60;55.20
49184;DHT22;35021;49.214;12.270;2022-07-10T06:27:22;20.50;55.20
49184;DHT22;35021;49.214;12.270;2022-07-10T06:29:49;20.60;55.40
49184;DHT22;35021;49.214;12.270;2022-07-10T06:32:16;20.50;55.30
49184;DHT22;35021;49.214;12.270;2022-07-10T06:34:43;20.60;55.50
49184;DHT22;35021;49.214;12.270;2022-07-10T06:37:09;20.60;55.60
49184;DHT22;35021;49.214;12.270;2022-07-10T06:39:36;20.50;55.60
49184;DHT22;35021;49.214;12.270;2022-07-10T06:42:04;20.60;55.60
49184;DHT22;35021;49.214;12.270;2022-07-10T06:44:32;20.60;56.30
49184;DHT22;35021;49.214;12.270;2022-07-10T06:46:59;20.60;55.60
49184;DHT22;35021;49.214;12.270;2022-07-10T06:49:46;20.50;55.50
49184;DHT22;35021;49.214;12.270;2022-07-10T06:52:15;20.60;55.50
49184;DHT22;35021;49.214;12.270;2022-07-10T06:54:42;20.60;55.50
49184;DHT22;35021;49.214;12.270;2022-07-10T06:57:10;20.60;55.50
49184;DHT22;35021;49.214;12.270;2022-07-10T06:59:37;20.60;55.60
49184;DHT22;35021;49.214;12.270;2022-07-10T07:02:04;20.60;55.60
49184;DHT22;35021;49.214;12.270;2022-07-10T07:04:31;20.60;55.70
49184;DHT22;35021;49.214;12.270;2022-07-10T07:06:58;20.50;55.60
49184;DHT22;35021;49.214;12.270;2022-07-10T07:09:25;20.50;55.60
49184;DHT22;35021;49.214;12.270;2022-07-10T07:11:51;20.50;55.70
49184;DHT22;35021;49.214;12.270;2022-07-10T07:14:18;20.50;55.70
49184;DHT22;35021;49.214;12.270;2022-07-10T07:16:45;20.50;55.60
49184;DHT22;35021;49.214;12.270;2022-07-10T07:19:24;20.50;55.50
49184;DHT22;35021;49.214;12.270;2022-07-10T07:22:09;20.50;55.40
49184;DHT22;35021;49.214;12.270;2022-07-10T07:24:55;20.50;55.30
49184;DHT22;35021;49.214;12.270;2022-07-10T07:27:23;20.50;55.20
49184;DHT22;35021;49.214;12.270;2022-07-10T07:29:50;20.50;55.20
49184;DHT22;35021;49.214;12.270;2022-07-10T07:32:17;20.60;55.30
49184;DHT22;35021;49.214;12.270;2022-07-10T07:34:44;20.60;55.30
49184;DHT22;35021;49.214;12.270;2022-07-10T07:37:11;20.60;55.30
49184;DHT22;35021;49.214;12.270;2022-07-10T07:39:38;20.60;55.40
49184;DHT22;35021;49.214;12.270;2022-07-10T07:42:05;20.60;55.30
49184;DHT22;35021;49.214;12.270;2022-07-10T07:44:32;20.60;55.20
49184;DHT22;35021;49.214;12.270;2022-07-10T07:46:59;20.60;55.10
49184;DHT22;35021;49.214;12.270;2022-07-10T07:49:26;20.60;55.10
49184;DHT22;35021;49.214;12.270;2022-07-10T07:51:52;20.60;55.10
49184;DHT22;35021;49.214;12.270;2022-07-10T07:54:19;20.60;55.20
49184;DHT22;35021;49.214;12.270;2022-07-10T07:56:46;20.60;55.20
49184;DHT22;35021;49.214;12.270;2022-07-10T07:59:13;20.60;55.30
49184;DHT22;35021;49.214;12.270;2022-07-10T08:01:40;20.60;55.30
49184;DHT22;35021;49.214;12.270;2022-07-10T08:04:11;20.60;54.90
49184;DHT22;35021;49.214;12.270;2022-07-10T08:06:58;20.60;54.90
49184;DHT22;35021;49.214;12.270;2022-07-10T08:09:31;20.60;54.70
49184;DHT22;35021;49.214;12.270;2022-07-10T08:11:58;20.60;54.30
49184;DHT22;35021;49.214;12.270;2022-07-10T08:14:26;20.60;54.00
49184;DHT22;35021;49.214;12.270;2022-07-10T08:16:52;20.60;53.70
49184;DHT22;35021;49.214;12.270;2022-07-10T08:19:19;20.60;53.60
49184;DHT22;35021;49.214;12.270;2022-07-10T08:21:47;20.50;53.70
49184;DHT22;35021;49.214;12.270;2022-07-10T08:24:13;20.60;53.60
49184;DHT22;35021;49.214;12.270;2022-07-10T08:26:41;20.60;53.80
49184;DHT22;35021;49.214;12.270;2022-07-10T08:29:09;20.60;53.90
49184;DHT22;35021;49.214;12.270;2022-07-10T08:31:38;20.60;53.60
49184;DHT22;35021;49.214;12.270;2022-07-10T08:34:07;20.60;53.40
49184;DHT22;35021;49.214;12.270;2022-07-10T08:36:35;20.60;53.20
49184;DHT22;35021;49.214;12.270;2022-07-10T08:39:11;20.60;52.80
49184;DHT22;35021;49.214;12.270;2022-07-10T08:41:44;20.60;52.60
49184;DHT22;35021;49.214;12.270;2022-07-10T08:44:14;20.60;52.50
49184;DHT22;35021;49.214;12.270;2022-07-10T08:46:43;20.60;52.30
49184;DHT22;35021;49.214;12.270;2022-07-10T08:49:16;20.60;52.00
49184;DHT22;35021;49.214;12.270;2022-07-10T08:51:54;20.60;51.60
49184;DHT22;35021;49.214;12.270;2022-07-10T08:54:23;20.70;51.10
49184;DHT22;35021;49.214;12.270;2022-07-10T08:56:51;20.70;50.70
49184;DHT22;35021;49.214;12.270;2022-07-10T08:59:22;20.80;50.40
49184;DHT22;35021;49.214;12.270;2022-07-10T09:01:59;20.90;50.10
49184;DHT22;35021;49.214;12.270;2022-07-10T09:04:28;21.00;49.70
49184;DHT22;35021;49.214;12.270;2022-07-10T09:06:56;21.20;49.60
49184;DHT22;35021;49.214;12.270;2022-07-10T09:09:26;21.30;49.20
49184;DHT22;35021;49.214;12.270;2022-07-10T09:11:57;21.40;48.90
49184;DHT22;35021;49.214;12.270;2022-07-10T09:14:26;21.50;48.70
49184;DHT22;35021;49.214;12.270;2022-07-10T09:17:02;21.60;48.40
49184;DHT22;35021;49.214;12.270;2022-07-10T09:19:30;21.80;48.20
49184;DHT22;35021;49.214;12.270;2022-07-10T09:22:05;21.90;48.00
49184;DHT22;35021;49.214;12.270;2022-07-10T09:24:39;22.00;47.70
49184;DHT22;35021;49.214;12.270;2022-07-10T09:27:07;22.10;47.30
49184;DHT22;35021;49.214;12.270;2022-07-10T09:29:53;22.20;46.90
49184;DHT22;35021;49.214;12.270;2022-07-10T09:32:37;22.30;46.80
49184;DHT22;35021;49.214;12.270;2022-07-10T09:35:05;22.30;46.60
49184;DHT22;35021;49.214;12.270;2022-07-10T09:37:53;22.40;46.70
49184;DHT22;35021;49.214;12.270;2022-07-10T09:40:20;22.50;46.70
49184;DHT22;35021;49.214;12.270;2022-07-10T09:42:47;22.50;46.80
49184;DHT22;35021;49.214;12.270;2022-07-10T09:45:16;22.50;46.70
49184;DHT22;35021;49.214;12.270;2022-07-10T09:47:59;22.50;46.40
49184;DHT22;35021;49.214;12.270;2022-07-10T09:50:35;22.50;46.30
49184;DHT22;35021;49.214;12.270;2022-07-10T09:53:04;22.50;46.30
49184;DHT22;35021;49.214;12.270;2022-07-10T09:55:34;22.40;46.30
49184;DHT22;35021;49.214;12.270;2022-07-10T09:58:06;22.30;46.50
49184;DHT22;35021;49.214;12.270;2022-07-10T10:00:37;22.30;46.40
49184;DHT22;35021;49.214;12.270;2022-07-10T10:03:09;22.30;46.60
49184;DHT22;35021;49.214;12.270;2022-07-10T10:08:29;22.30;46.50
49184;DHT22;35021;49.214;12.270;2022-07-10T10:10:57;22.20;46.10
49184;DHT22;35021;49.214;12.270;2022-07-10T10:13:26;22.20;46.20
49184;DHT22;35021;49.214;12.270;2022-07-10T10:15:55;22.20;46.50
49184;DHT22;35021;49.214;12.270;2022-07-10T10:18:25;22.10;46.70
49184;DHT22;35021;49.214;12.270;2022-07-10T10:20:54;22.10;46.80
49184;DHT22;35021;49.214;12.270;2022-07-10T10:23:22;22.10;46.90
49184;DHT22;35021;49.214;12.270;2022-07-10T10:25:57;22.10;47.00
49184;DHT22;35021;49.214;12.270;2022-07-10T10:28:25;22.10;47.20
49184;DHT22;35021;49.214;12.270;2022-07-10T10:30:54;22.10;47.20
49184;DHT22;35021;49.214;12.270;2022-07-10T10:36:10;22.10;47.50
49184;DHT22;35021;49.214;12.270;2022-07-10T10:41:30;22.10;47.80
49184;DHT22;35021;49.214;12.270;2022-07-10T10:47:02;22.10;47.60
49184;DHT22;35021;49.214;12.270;2022-07-10T10:49:51;22.10;47.50
49184;DHT22;35021;49.214;12.270;2022-07-10T10:52:19;22.10;47.40
49184;DHT22;35021;49.214;12.270;2022-07-10T10:57:34;22.10;47.50
49184;DHT22;35021;49.214;12.270;2022-07-10T11:00:12;22.10;47.70
49184;DHT22;35021;49.214;12.270;2022-07-10T11:02:41;22.10;47.60
49184;DHT22;35021;49.214;12.270;2022-07-10T11:12:59;22.00;47.20
49184;DHT22;35021;49.214;12.270;2022-07-10T11:15:27;22.00;47.00
49184;DHT22;35021;49.214;12.270;2022-07-10T11:17:57;22.00;46.90
49184;DHT22;35021;49.214;12.270;2022-07-10T11:20:24;22.00;47.20
49184;DHT22;35021;49.214;12.270;2022-07-10T11:26:16;22.00;47.20
49184;DHT22;35021;49.214;12.270;2022-07-10T11:28:58;22.00;47.10
49184;DHT22;35021;49.214;12.270;2022-07-10T11:31:27;22.00;47.80
49184;DHT22;35021;49.214;12.270;2022-07-10T11:33:55;22.00;47.30
49184;DHT22;35021;49.214;12.270;2022-07-10T11:36:26;22.00;47.40
49184;DHT22;35021;49.214;12.270;2022-07-10T11:39:03;22.00;47.10
49184;DHT22;35021;49.214;12.270;2022-07-10T11:41:31;22.00;47.00
49184;DHT22;35021;49.214;12.270;2022-07-10T11:44:02;22.00;46.90
49184;DHT22;35021;49.214;12.270;2022-07-10T11:46:31;22.00;47.00
49184;DHT22;35021;49.214;12.270;2022-07-10T11:49:03;22.00;47.00
49184;DHT22;35021;49.214;12.270;2022-07-10T11:51:34;22.00;46.90
49184;DHT22;35021;49.214;12.270;2022-07-10T11:54:10;22.00;47.00
49184;DHT22;35021;49.214;12.270;2022-07-10T11:56:40;22.00;47.20
49184;DHT22;35021;49.214;12.270;2022-07-10T11:59:12;22.00;47.30
49184;DHT22;35021;49.214;12.270;2022-07-10T12:01:48;22.00;47.40
49184;DHT22;35021;49.214;12.270;2022-07-10T12:04:17;22.00;47.50
49184;DHT22;35021;49.214;12.270;2022-07-10T12:06:46;22.00;47.40
49184;DHT22;35021;49.214;12.270;2022-07-10T12:09:16;22.00;47.30
49184;DHT22;35021;49.214;12.270;2022-07-10T12:11:44;22.00;47.30
49184;DHT22;35021;49.214;12.270;2022-07-10T12:14:24;22.00;47.10
49184;DHT22;35021;49.214;12.270;2022-07-10T12:16:53;22.00;47.00
49184;DHT22;35021;49.214;12.270;2022-07-10T12:19:26;22.10;46.80
49184;DHT22;35021;49.214;12.270;2022-07-10T12:21:54;22.10;46.70
49184;DHT22;35021;49.214;12.270;2022-07-10T12:24:24;22.10;46.70
49184;DHT22;35021;49.214;12.270;2022-07-10T12:26:52;22.10;46.60
49184;DHT22;35021;49.214;12.270;2022-07-10T12:31:52;22.10;46.30
49184;DHT22;35021;49.214;12.270;2022-07-10T12:34:20;22.10;46.10
49184;DHT22;35021;49.214;12.270;2022-07-10T12:36:52;22.10;46.10
49184;DHT22;35021;49.214;12.270;2022-07-10T12:39:21;22.20;46.20
49184;DHT22;35021;49.214;12.270;2022-07-10T12:44:41;22.20;46.10
49184;DHT22;35021;49.214;12.270;2022-07-10T12:47:14;22.20;46.00
49184;DHT22;35021;49.214;12.270;2022-07-10T12:50:03;22.20;46.00
49184;DHT22;35021;49.214;12.270;2022-07-10T12:52:36;22.20;46.10
49184;DHT22;35021;49.214;12.270;2022-07-10T12:55:22;22.20;46.00
49184;DHT22;35021;49.214;12.270;2022-07-10T12:57:54;22.20;46.20
49184;DHT22;35021;49.214;12.270;2022-07-10T13:00:23;22.20;46.20
49184;DHT22;35021;49.214;12.270;2022-07-10T13:03:03;22.20;46.80
49184;DHT22;35021;49.214;12.270;2022-07-10T13:05:32;22.20;46.20
49184;DHT22;35021;49.214;12.270;2022-07-10T13:08:17;22.20;46.10
49184;DHT22;35021;49.214;12.270;2022-07-10T13:13:16;22.20;46.30
49184;DHT22;35021;49.214;12.270;2022-07-10T13:15:44;22.20;46.30
49184;DHT22;35021;49.214;12.270;2022-07-10T13:18:23;22.20;46.40
49184;DHT22;35021;49.214;12.270;2022-07-10T13:20:53;22.20;46.50
49184;DHT22;35021;49.214;12.270;2022-07-10T13:23:27;22.20;46.40
49184;DHT22;35021;49.214;12.270;2022-07-10T13:25:58;22.20;46.30
49184;DHT22;35021;49.214;12.270;2022-07-10T13:28:29;22.20;46.30
49184;DHT22;35021;49.214;12.270;2022-07-10T13:30:56;22.20;46.30
49184;DHT22;35021;49.214;12.270;2022-07-10T13:33:23;22.20;46.10
49184;DHT22;35021;49.214;12.270;2022-07-10T13:35:52;22.20;46.00
49184;DHT22;35021;49.214;12.270;2022-07-10T13:38:19;22.20;46.00
49184;DHT22;35021;49.214;12.270;2022-07-10T13:40:47;22.20;46.00
49184;DHT22;35021;49.214;12.270;2022-07-10T13:43:15;22.30;45.90
49184;DHT22;35021;49.214;12.270;2022-07-10T13:45:46;22.30;45.70
49184;DHT22;35021;49.214;12.270;2022-07-10T13:48:15;22.20;45.40
49184;DHT22;35021;49.214;12.270;2022-07-10T13:50:44;22.30;45.60
49184;DHT22;35021;49.214;12.270;2022-07-10T13:53:15;22.30;45.70
49184;DHT22;35021;49.214;12.270;2022-07-10T13:55:44;22.30;45.80
49184;DHT22;35021;49.214;12.270;2022-07-10T13:58:12;22.30;45.90
49184;DHT22;35021;49.214;12.270;2022-07-10T14:00:39;22.30;45.90
49184;DHT22;35021;49.214;12.270;2022-07-10T14:03:06;22.30;45.90
49184;DHT22;35021;49.214;12.270;2022-07-10T14:05:34;22.30;46.10
49184;DHT22;35021;49.214;12.270;2022-07-10T14:08:01;22.30;46.10
49184;DHT22;35021;49.214;12.270;2022-07-10T14:10:28;22.30;46.10
49184;DHT22;35021;49.214;12.270;2022-07-10T14:12:55;22.30;45.90
49184;DHT22;35021;49.214;12.270;2022-07-10T14:15:23;22.30;45.70
49184;DHT22;35021;49.214;12.270;2022-07-10T14:17:50;22.30;45.40
49184;DHT22;35021;49.214;12.270;2022-07-10T14:20:18;22.30;45.30
49184;DHT22;35021;49.214;12.270;2022-07-10T14:22:45;22.30;45.30
49184;DHT22;35021;49.214;12.270;2022-07-10T14:25:13;22.30;45.50
49184;DHT22;35021;49.214;12.270;2022-07-10T14:27:41;22.30;45.60
49184;DHT22;35021;49.214;12.270;2022-07-10T14:30:08;22.30;45.70
49184;DHT22;35021;49.214;12.270;2022-07-10T14:32:35;22.30;45.80
49184;DHT22;35021;49.214;12.270;2022-07-10T14:35:02;22.30;45.80
49184;DHT22;35021;49.214;12.270;2022-07-10T14:37:29;22.30;45.80
49184;DHT22;35021;49.214;12.270;2022-07-10T14:39:55;22.30;45.80
49184;DHT22;35021;49.214;12.270;2022-07-10T14:42:22;22.20;45.90
49184;DHT22;35021;49.214;12.270;2022-07-10T14:44:49;22.20;45.80
49184;DHT22;35021;49.214;12.270;2022-07-10T14:47:16;22.20;46.00
49184;DHT22;35021;49.214;12.270;2022-07-10T14:49:43;22.20;46.00
49184;DHT22;35021;49.214;12.270;2022-07-10T14:52:11;22.20;45.80
49184;DHT22;35021;49.214;12.270;2022-07-10T14:54:40;22.30;45.70
49184;DHT22;35021;49.214;12.270;2022-07-10T14:57:07;22.30;45.50
49184;DHT22;35021;49.214;12.270;2022-07-10T14:59:34;22.30;45.50
49184;DHT22;35021;49.214;12.270;2022-07-10T15:02:01;22.30;45.50
49184;DHT22;35021;49.214;12.270;2022-07-10T15:04:28;22.30;45.50
49184;DHT22;35021;49.214;12.270;2022-07-10T15:06:54;22.40;45.70
49184;DHT22;35021;49.214;12.270;2022-07-10T15:09:21;22.40;45.70
49184;DHT22;35021;49.214;12.270;2022-07-10T15:11:48;22.30;45.60
49184;DHT22;35021;49.214;12.270;2022-07-10T15:14:15;22.40;45.60
49184;DHT22;35021;49.214;12.270;2022-07-10T15:16:42;22.40;45.70
49184;DHT22;35021;49.214;12.270;2022-07-10T15:19:09;22.30;45.70
49184;DHT22;35021;49.214;12.270;2022-07-10T15:21:38;22.30;45.70
49184;DHT22;35021;49.214;12.270;2022-07-10T15:24:05;22.30;45.80
49184;DHT22;35021;49.214;12.270;2022-07-10T15:26:35;22.30;45.70
49184;DHT22;35021;49.214;12.270;2022-07-10T15:29:02;22.30;45.70
49184;DHT22;35021;49.214;12.270;2022-07-10T15:31:29;22.40;45.60
49184;DHT22;35021;49.214;12.270;2022-07-10T15:33:56;22.30;45.60
49184;DHT22;35021;49.214;12.270;2022-07-10T15:36:23;22.30;45.60
49184;DHT22;35021;49.214;12.270;2022-07-10T15:38:50;22.30;45.60
49184;DHT22;35021;49.214;12.270;2022-07-10T15:41:17;22.30;45.60
49184;DHT22;35021;49.214;12.270;2022-07-10T15:43:43;22.30;45.70
49184;DHT22;35021;49.214;12.270;2022-07-10T15:46:12;22.30;45.80
49184;DHT22;35021;49.214;12.270;2022-07-10T15:48:41;22.30;45.80
49184;DHT22;35021;49.214;12.270;2022-07-10T15:51:08;22.30;45.90
49184;DHT22;35021;49.214;12.270;2022-07-10T15:53:35;22.30;46.00
49184;DHT22;35021;49.214;12.270;2022-07-10T15:56:04;22.30;45.70
49184;DHT22;35021;49.214;12.270;2022-07-10T15:58:31;22.20;45.60